createdAt,value
2022-08-09T00:01:57.577Z,12.62
2022-08-09T00:04:34.773Z,12.60
2022-08-09T00:07:10.597Z,12.56
2022-08-09T00:09:41.089Z,12.50
2022-08-09T00:12:22.854Z,12.49
2022-08-09T00:14:54.559Z,12.46
2022-08-09T00:18:09.289Z,12.44
2022-08-09T00:20:16.741Z,12.41
2022-08-09T00:22:47.381Z,12.39
2022-08-09T00:25:23.589Z,12.36
2022-08-09T00:28:04.035Z,12.33
2022-08-09T00:30:35.558Z,12.29
2022-08-09T00:33:05.469Z,12.25
2022-08-09T00:35:43.237Z,12.26
2022-08-09T00:40:54.722Z,12.19
2022-08-09T00:44:13.140Z,12.18
2022-08-09T00:46:55.579Z,12.17
2022-08-09T00:49:07.530Z,12.14
2022-08-09T00:51:42.694Z,12.11
2022-08-09T00:54:31.260Z,12.07
2022-08-09T00:57:08.811Z,12.04
2022-08-09T00:59:46.594Z,12.02
2022-08-09T01:02:26.805Z,11.99
2022-08-09T01:05:14.009Z,11.96
2022-08-09T01:07:59.707Z,11.91
2022-08-09T01:10:39.269Z,11.85
2022-08-09T01:13:22.123Z,11.83
2022-08-09T01:15:55.438Z,11.81
2022-08-09T01:18:32.202Z,11.78
2022-08-09T01:21:24.783Z,11.76
2022-08-09T01:24:05.035Z,11.73
2022-08-09T01:26:59.375Z,11.71
2022-08-09T01:29:40.938Z,11.68
2022-08-09T01:32:34.069Z,11.66
2022-08-09T01:35:28.213Z,11.65
2022-08-09T01:38:10.473Z,11.62
2022-08-09T01:41:05.024Z,11.63
2022-08-09T01:43:50.657Z,11.62
2022-08-09T01:46:27.141Z,11.60
2022-08-09T01:49:09.468Z,11.58
2022-08-09T01:51:53.527Z,11.57
2022-08-09T01:54:30.251Z,11.56
2022-08-09T01:57:10.059Z,11.54
2022-08-09T01:59:51.580Z,11.51
2022-08-09T02:02:31.035Z,11.48
2022-08-09T02:05:15.267Z,11.48
2022-08-09T02:08:40.464Z,11.47
2022-08-09T02:10:51.358Z,11.44
2022-08-09T02:13:37.613Z,11.41
2022-08-09T02:16:13.681Z,11.41
2022-08-09T02:18:47.658Z,11.40
2022-08-09T02:21:22.677Z,11.39
2022-08-09T02:23:57.520Z,11.38
2022-08-09T02:26:29.573Z,11.36
2022-08-09T02:29:04.489Z,11.35
2022-08-09T02:31:42.726Z,11.32
2022-08-09T02:34:25.756Z,11.30
2022-08-09T02:37:16.382Z,11.27
2022-08-09T02:40:01.325Z,11.25
2022-08-09T02:42:36.741Z,11.23
2022-08-09T02:45:12.127Z,11.22
2022-08-09T02:47:57.584Z,11.22
2022-08-09T02:50:38.205Z,11.19
2022-08-09T02:53:17.271Z,11.17
2022-08-09T02:56:01.040Z,11.18
2022-08-09T02:58:37.479Z,11.17
2022-08-09T03:01:10.970Z,11.17
2022-08-09T03:04:17.563Z,11.16
2022-08-09T03:06:36.195Z,11.15
2022-08-09T03:09:07.878Z,11.15
2022-08-09T03:12:09.906Z,11.16
2022-08-09T03:14:31.765Z,11.15
2022-08-09T03:17:05.516Z,11.18
2022-08-09T03:19:58.169Z,11.16
2022-08-09T03:22:31.528Z,11.15
2022-08-09T03:25:06.211Z,11.15
2022-08-09T03:27:55.365Z,11.16
2022-08-09T03:30:33.220Z,11.13
2022-08-09T03:33:18.531Z,11.10
2022-08-09T03:36:15.865Z,11.07
2022-08-09T03:38:44.915Z,11.03
2022-08-09T03:41:18.446Z,10.99
2022-08-09T03:44:03.624Z,10.98
2022-08-09T03:46:51.894Z,10.96
2022-08-09T03:49:23.966Z,10.93
2022-08-09T03:52:03.485Z,10.89
2022-08-09T03:54:38.845Z,10.86
2022-08-09T03:57:20.304Z,10.83
2022-08-09T03:59:55.432Z,10.83
2022-08-09T04:02:28.989Z,10.83
2022-08-09T04:05:06.574Z,10.82
2022-08-09T04:07:47.163Z,10.82
2022-08-09T04:10:28.526Z,10.79
2022-08-09T04:13:04.126Z,10.78
2022-08-09T04:15:52.121Z,10.75
2022-08-09T04:18:25.050Z,10.73
2022-08-09T04:20:55.056Z,10.75
2022-08-09T04:23:26.068Z,10.73
2022-08-09T04:25:56.618Z,10.72
2022-08-09T04:28:34.099Z,10.70
2022-08-09T04:31:10.123Z,10.69
2022-08-09T04:33:47.704Z,10.70
2022-08-09T04:36:26.184Z,10.70
2022-08-09T04:38:59.752Z,10.72
2022-08-09T04:41:32.131Z,10.73
2022-08-09T04:44:09.637Z,10.75
2022-08-09T04:46:58.454Z,10.77
2022-08-09T04:49:53.631Z,10.80
2022-08-09T04:52:27.752Z,10.84
2022-08-09T04:55:02.406Z,10.89
2022-08-09T04:57:54.387Z,10.95
2022-08-09T05:00:24.075Z,11.04
2022-08-09T05:02:54.188Z,11.15
2022-08-09T05:05:32.263Z,11.25
2022-08-09T05:08:15.130Z,11.36
2022-08-09T05:10:46.355Z,11.47
2022-08-09T05:13:15.870Z,11.59
2022-08-09T05:15:48.039Z,11.73
2022-08-09T05:18:37.643Z,11.84
2022-08-09T05:21:09.768Z,11.96
2022-08-09T05:23:54.698Z,12.06
2022-08-09T05:26:36.126Z,12.17
2022-08-09T05:29:17.812Z,12.30
2022-08-09T05:31:57.256Z,12.41
2022-08-09T05:34:31.115Z,12.51
2022-08-09T05:37:06.694Z,12.63
2022-08-09T05:39:42.884Z,12.74
2022-08-09T05:42:20.634Z,12.84
2022-08-09T05:44:55.493Z,12.97
2022-08-09T05:47:30.205Z,13.07
2022-08-09T05:50:25.968Z,13.15
2022-08-09T05:52:54.858Z,13.28
2022-08-09T05:55:25.300Z,13.36
2022-08-09T05:57:58.509Z,13.47
2022-08-09T06:00:30.296Z,13.54
2022-08-09T06:03:02.776Z,13.65
2022-08-09T06:05:58.217Z,13.75
2022-08-09T06:08:25.773Z,13.89
2022-08-09T06:10:58.328Z,13.99
2022-08-09T06:13:33.641Z,14.11
2022-08-09T06:16:05.503Z,14.24
2022-08-09T06:18:36.489Z,14.35
2022-08-09T06:21:08.095Z,14.48
2022-08-09T06:23:55.259Z,14.61
2022-08-09T06:26:28.898Z,14.74
2022-08-09T06:29:04.984Z,14.87
2022-08-09T06:31:39.748Z,15.01
2022-08-09T06:34:26.067Z,15.15
2022-08-09T06:37:00.150Z,15.29
2022-08-09T06:39:48.524Z,15.45
2022-08-09T06:42:24.658Z,15.60
2022-08-09T06:45:00.495Z,15.73
2022-08-09T06:47:57.975Z,15.89
2022-08-09T06:50:31.922Z,16.04
2022-08-09T06:53:01.815Z,16.19
2022-08-09T06:55:33.202Z,16.33
2022-08-09T06:58:04.678Z,16.48
2022-08-09T07:00:54.166Z,16.62
2022-08-09T07:03:29.013Z,16.79
2022-08-09T07:06:04.209Z,16.94
2022-08-09T07:08:37.415Z,17.10
2022-08-09T07:11:12.738Z,17.26
2022-08-09T07:14:04.830Z,17.42
2022-08-09T07:16:44.063Z,17.57
2022-08-09T07:19:23.374Z,17.73
2022-08-09T07:21:57.783Z,17.88
2022-08-09T07:24:40.551Z,18.02
2022-08-09T07:27:33.651Z,18.22
2022-08-09T07:30:05.749Z,18.41
2022-08-09T07:32:38.132Z,18.55
2022-08-09T07:35:14.806Z,18.70
2022-08-09T07:37:47.921Z,18.84
2022-08-09T07:40:27.033Z,19.02
2022-08-09T07:43:04.136Z,19.18
2022-08-09T07:45:44.321Z,19.34
2022-08-09T07:48:22.440Z,19.47
2022-08-09T07:51:03.011Z,19.61
2022-08-09T07:54:06.921Z,19.79
2022-08-09T07:56:30.816Z,19.97
2022-08-09T07:59:01.059Z,20.13
2022-08-09T08:01:32.993Z,20.28
2022-08-09T08:04:10.680Z,20.43
2022-08-09T08:06:55.935Z,20.57
2022-08-09T08:09:38.697Z,20.75
2022-08-09T08:12:27.682Z,20.91
2022-08-09T08:14:59.786Z,21.08
2022-08-09T08:17:52.376Z,21.21
2022-08-09T08:20:30.362Z,21.34
2022-08-09T08:23:06.918Z,21.47
2022-08-09T08:25:50.135Z,21.62
2022-08-09T08:28:25.911Z,21.76
2022-08-09T08:31:10.540Z,21.89
2022-08-09T08:33:53.514Z,22.06
2022-08-09T08:36:28.963Z,22.19
2022-08-09T08:39:00.311Z,22.27
2022-08-09T08:41:50.653Z,22.40
2022-08-09T08:44:28.723Z,22.54
2022-08-09T08:47:04.775Z,22.65
2022-08-09T08:49:47.901Z,22.81
2022-08-09T08:55:23.035Z,23.09
2022-08-09T08:57:56.851Z,23.22
2022-08-09T09:00:30.120Z,23.33
2022-08-09T09:03:08.675Z,23.51
2022-08-09T09:05:59.794Z,23.64
2022-08-09T09:08:40.751Z,23.73
2022-08-09T09:11:13.692Z,23.75
2022-08-09T09:13:57.959Z,23.77
2022-08-09T09:16:33.672Z,23.87
2022-08-09T09:19:22.499Z,23.99
2022-08-09T09:22:11.388Z,24.08
2022-08-09T09:24:46.267Z,24.25
2022-08-09T09:28:04.074Z,24.38
2022-08-09T09:30:34.553Z,24.52
2022-08-09T09:33:16.948Z,24.60
2022-08-09T09:36:02.045Z,24.68
2022-08-09T09:38:47.326Z,24.82
2022-08-09T09:41:49.358Z,24.95
2022-08-09T09:44:31.691Z,25.13
2022-08-09T09:47:11.033Z,25.27
2022-08-09T09:50:06.895Z,25.34
2022-08-09T09:52:36.622Z,25.30
2022-08-09T09:55:28.469Z,25.44
2022-08-09T09:58:16.878Z,25.57
2022-08-09T10:00:53.788Z,25.58
2022-08-09T10:03:44.807Z,25.69
2022-08-09T10:06:32.042Z,25.78
2022-08-09T10:09:12.042Z,25.92
2022-08-09T10:12:12.060Z,26.11
2022-08-09T10:14:48.050Z,26.28
2022-08-09T10:17:39.004Z,26.42
2022-08-09T10:20:33.062Z,26.34
2022-08-09T10:23:22.629Z,26.35
2022-08-09T10:26:08.126Z,26.43
2022-08-09T10:28:45.539Z,26.59
2022-08-09T10:34:32.875Z,26.79
2022-08-09T10:37:03.663Z,26.91
2022-08-09T10:39:49.292Z,27.07
2022-08-09T10:42:19.440Z,27.21
2022-08-09T10:44:55.142Z,27.34
2022-08-09T10:48:16.871Z,27.35
2022-08-09T10:51:09.266Z,27.50
2022-08-09T10:53:54.937Z,27.47
2022-08-09T10:56:28.398Z,27.66
2022-08-09T10:59:03.389Z,27.84
2022-08-09T11:03:18.762Z,27.96
2022-08-09T11:04:35.374Z,28.07
2022-08-09T11:07:58.267Z,28.20
2022-08-09T11:11:00.579Z,28.37
2022-08-09T11:13:50.826Z,28.48
2022-08-09T11:16:39.336Z,28.64
2022-08-09T11:19:11.489Z,28.73
2022-08-09T11:22:10.698Z,28.81
2022-08-09T11:25:10.361Z,28.98
2022-08-09T11:28:03.580Z,29.13
2022-08-09T11:30:38.100Z,29.28
2022-08-09T11:33:27.845Z,29.39
2022-08-09T11:36:00.965Z,29.55
2022-08-09T11:38:35.358Z,29.68
2022-08-09T11:41:38.596Z,29.67
2022-08-09T11:44:13.508Z,29.78
2022-08-09T11:46:57.003Z,29.59
2022-08-09T11:50:53.893Z,29.76
2022-08-09T11:54:01.123Z,30.11
2022-08-09T11:56:42.652Z,30.28
2022-08-09T11:59:33.612Z,30.40
2022-08-09T12:02:37.350Z,30.47
2022-08-09T12:04:58.163Z,30.60
2022-08-09T12:07:41.353Z,30.81
2022-08-09T12:10:14.407Z,30.87
2022-08-09T12:14:11.078Z,31.08
2022-08-09T12:16:06.221Z,31.19
2022-08-09T12:18:56.300Z,31.28
2022-08-09T12:21:38.569Z,31.15
2022-08-09T12:24:12.580Z,31.23
2022-08-09T12:28:58.297Z,31.33
2022-08-09T12:30:04.319Z,31.34
2022-08-09T12:32:48.704Z,31.38
2022-08-09T12:35:21.573Z,31.53
2022-08-09T12:37:53.890Z,31.71
2022-08-09T12:40:27.251Z,31.85
2022-08-09T12:42:58.138Z,31.83
2022-08-09T12:45:33.642Z,31.92
2022-08-09T12:48:07.988Z,31.88
2022-08-09T12:50:52.151Z,31.92
2022-08-09T12:53:35.280Z,32.07
2022-08-09T12:56:43.788Z,32.07
2022-08-09T12:59:57.974Z,32.12
2022-08-09T13:02:24.476Z,32.06
2022-08-09T13:05:02.948Z,32.03
2022-08-09T13:07:50.188Z,32.11
2022-08-09T13:10:21.028Z,32.17
2022-08-09T13:13:10.959Z,32.36
2022-08-09T13:15:57.157Z,32.48
2022-08-09T13:18:30.466Z,32.47
2022-08-09T13:22:33.073Z,32.60
2022-08-09T13:24:17.552Z,32.88
2022-08-09T13:26:46.106Z,32.99
2022-08-09T13:29:28.631Z,32.96
2022-08-09T13:32:25.499Z,32.99
2022-08-09T13:34:58.732Z,32.89
2022-08-09T13:37:51.697Z,33.02
2022-08-09T13:41:55.140Z,33.23
2022-08-09T13:43:11.578Z,33.40
2022-08-09T13:46:42.598Z,33.47
2022-08-09T13:48:35.184Z,33.45
2022-08-09T13:51:08.954Z,33.50
2022-08-09T13:53:43.157Z,33.50
2022-08-09T13:56:14.345Z,33.75
2022-08-09T13:58:47.984Z,33.72
2022-08-09T14:01:56.309Z,33.73
2022-08-09T14:04:11.593Z,33.77
2022-08-09T14:06:43.821Z,33.76
2022-08-09T14:09:16.419Z,33.83
2022-08-09T14:11:47.783Z,34.01
2022-08-09T14:14:26.295Z,33.96
2022-08-09T14:16:57.319Z,34.09
2022-08-09T14:19:30.320Z,34.25
2022-08-09T14:22:05.925Z,34.39
2022-08-09T14:24:35.578Z,34.35
2022-08-09T14:27:19.850Z,34.39
2022-08-09T14:30:34.621Z,34.33
2022-08-09T14:32:40.251Z,34.33
2022-08-09T14:35:12.929Z,34.34
2022-08-09T14:38:02.172Z,34.40
2022-08-09T14:40:38.965Z,34.32
2022-08-09T14:43:22.950Z,34.21
2022-08-09T14:46:54.155Z,34.27
2022-08-09T14:48:42.190Z,34.30
2022-08-09T14:51:15.357Z,34.37
2022-08-09T14:53:52.254Z,34.23
2022-08-09T14:56:22.263Z,34.09
2022-08-09T14:58:56.578Z,34.10
2022-08-09T15:01:27.638Z,34.18
2022-08-09T15:03:57.358Z,34.28
2022-08-09T15:06:28.743Z,34.37
2022-08-09T15:09:01.059Z,34.51
2022-08-09T15:11:30.675Z,34.49
2022-08-09T15:14:04.862Z,34.42
2022-08-09T15:16:43.122Z,34.08
2022-08-09T15:19:17.940Z,34.07
2022-08-09T15:21:55.998Z,33.96
2022-08-09T15:24:32.366Z,33.72
2022-08-09T15:27:01.985Z,33.47
2022-08-09T15:30:58.561Z,33.23
2022-08-09T15:32:28.862Z,32.97
2022-08-09T15:35:01.120Z,32.60
2022-08-09T15:37:56.299Z,32.38
2022-08-09T15:40:31.767Z,32.19
2022-08-09T15:43:03.239Z,32.08
2022-08-09T15:45:51.661Z,31.87
2022-08-09T15:48:28.350Z,31.51
2022-08-09T15:50:59.422Z,31.08
2022-08-09T15:54:04.527Z,30.81
2022-08-09T15:56:21.348Z,30.51
2022-08-09T15:59:00.021Z,30.37
2022-08-09T16:01:35.455Z,30.21
2022-08-09T16:04:06.097Z,30.01
2022-08-09T16:06:44.517Z,29.72
2022-08-09T16:09:32.577Z,29.52
2022-08-09T16:12:12.072Z,29.29
2022-08-09T16:14:45.959Z,29.08
2022-08-09T16:17:17.216Z,28.93
2022-08-09T16:19:49.250Z,28.78
2022-08-09T16:22:48.995Z,28.63
2022-08-09T16:25:36.763Z,28.56
2022-08-09T16:28:12.049Z,28.34
2022-08-09T16:30:44.396Z,28.20
2022-08-09T16:33:16.001Z,27.98
2022-08-09T16:35:56.634Z,27.83
2022-08-09T16:38:28.048Z,27.67
2022-08-09T16:40:59.339Z,27.55
2022-08-09T16:43:40.639Z,27.38
2022-08-09T16:46:12.352Z,27.17
2022-08-09T16:48:59.272Z,27.01
2022-08-09T16:51:31.603Z,26.83
2022-08-09T16:54:27.533Z,26.71
2022-08-09T16:56:54.457Z,26.55
2022-08-09T16:59:27.399Z,26.39
2022-08-09T17:02:04.385Z,26.25
2022-08-09T17:04:35.101Z,26.16
2022-08-09T17:08:45.393Z,25.98
2022-08-09T17:10:01.791Z,25.84
2022-08-09T17:12:35.561Z,25.72
2022-08-09T17:15:31.334Z,25.58
2022-08-09T17:18:00.723Z,25.46
2022-08-09T17:20:37.701Z,25.37
2022-08-09T17:23:14.798Z,25.33
2022-08-09T17:25:52.999Z,25.21
2022-08-09T17:28:22.965Z,25.08
2022-08-09T17:30:54.347Z,24.99
2022-08-09T17:33:24.003Z,24.88
2022-08-09T17:35:53.485Z,24.75
2022-08-09T17:38:34.070Z,24.65
2022-08-09T17:41:07.934Z,24.53
2022-08-09T17:43:37.984Z,24.44
2022-08-09T17:46:09.859Z,24.32
2022-08-09T17:48:46.588Z,24.24
2022-08-09T17:51:22.596Z,24.15
2022-08-09T17:53:55.775Z,24.12
2022-08-09T17:56:28.778Z,24.02
2022-08-09T17:59:01.113Z,23.95
2022-08-09T18:02:03.295Z,23.86
2022-08-09T18:04:23.545Z,23.78
2022-08-09T18:06:54.881Z,23.71
2022-08-09T18:09:40.247Z,23.59
2022-08-09T18:12:17.410Z,23.47
2022-08-09T18:14:54.690Z,23.38
2022-08-09T18:18:03.730Z,23.30
2022-08-09T18:20:56.019Z,23.21
2022-08-09T18:23:07.993Z,23.11
2022-08-09T18:25:57.991Z,23.03
2022-08-09T18:30:42.021Z,22.92
2022-08-09T18:31:32.245Z,22.79
2022-08-09T18:34:10.314Z,22.65
2022-08-09T18:36:39.539Z,22.51
2022-08-09T18:39:15.951Z,22.36
2022-08-09T18:41:53.130Z,22.24
2022-08-09T18:44:25.752Z,22.15
2022-08-09T18:47:08.201Z,22.07
2022-08-09T18:49:46.844Z,21.90
2022-08-09T18:52:24.951Z,21.71
2022-08-09T18:54:59.614Z,21.61
2022-08-09T18:57:42.880Z,21.54
2022-08-09T19:00:16.820Z,21.43
2022-08-09T19:02:51.163Z,21.32
2022-08-09T19:05:49.309Z,21.21
2022-08-09T19:08:19.698Z,21.05
2022-08-09T19:10:50.690Z,20.86
2022-08-09T19:13:23.432Z,20.71
2022-08-09T19:16:09.332Z,20.54
2022-08-09T19:18:43.924Z,20.38
2022-08-09T19:21:16.424Z,20.17
2022-08-09T19:24:36.231Z,19.96
2022-08-09T19:26:38.385Z,19.75
2022-08-09T19:29:18.005Z,19.55
2022-08-09T19:31:51.647Z,19.36
2022-08-09T19:34:24.675Z,19.15
2022-08-09T19:36:58.457Z,18.98
2022-08-09T19:40:02.650Z,18.83
2022-08-09T19:42:28.414Z,18.65
2022-08-09T19:44:57.692Z,18.51
2022-08-09T19:47:27.250Z,18.37
2022-08-09T19:50:07.061Z,18.25
2022-08-09T19:52:51.941Z,18.10
2022-08-09T19:55:30.776Z,17.95
2022-08-09T19:58:15.959Z,17.81
2022-08-09T20:00:47.674Z,17.70
2022-08-09T20:04:26.514Z,17.59
2022-08-09T20:06:22.309Z,17.47
2022-08-09T20:08:56.570Z,17.34
2022-08-09T20:11:26.941Z,17.25
2022-08-09T20:13:56.759Z,17.15
2022-08-09T20:16:38.239Z,17.06
2022-08-09T20:19:49.652Z,16.96
2022-08-09T20:22:04.769Z,16.86
2022-08-09T20:24:40.960Z,16.75
2022-08-09T20:27:11.554Z,16.65
2022-08-09T20:29:44.528Z,16.55
2022-08-09T20:32:29.399Z,16.45
2022-08-09T20:35:01.461Z,16.37
2022-08-09T20:37:37.310Z,16.27
2022-08-09T20:40:27.918Z,16.15
2022-08-09T20:42:59.514Z,16.08
2022-08-09T20:45:57.767Z,15.99
2022-08-09T20:48:21.374Z,15.89
2022-08-09T20:50:55.632Z,15.80
2022-08-09T20:53:36.632Z,15.72
2022-08-09T20:56:20.114Z,15.66
2022-08-09T20:58:58.645Z,15.58
2022-08-09T21:01:34.444Z,15.49
2022-08-09T21:05:52.882Z,15.40
2022-08-09T21:07:14.421Z,15.33
2022-08-09T21:09:56.584Z,15.26
2022-08-09T21:12:32.392Z,15.21
2022-08-09T21:15:03.725Z,15.17
2022-08-09T21:18:11.970Z,15.12
2022-08-09T21:20:26.332Z,15.08
2022-08-09T21:22:56.178Z,15.06
2022-08-09T21:25:56.154Z,15.02
2022-08-09T21:28:36.206Z,14.97
2022-08-09T21:31:13.576Z,14.92
2022-08-09T21:33:51.231Z,14.86
2022-08-09T21:36:30.508Z,14.81
2022-08-09T21:39:00.723Z,14.74
2022-08-09T21:42:04.927Z,14.68
2022-08-09T21:44:32.879Z,14.61
2022-08-09T21:47:09.013Z,14.58
2022-08-09T21:49:42.905Z,14.56
2022-08-09T21:52:17.612Z,14.53
2022-08-09T21:54:50.868Z,14.58
2022-08-09T21:57:39.190Z,14.62
2022-08-09T22:00:26.742Z,14.64
2022-08-09T22:03:06.671Z,14.67
2022-08-09T22:05:42.055Z,14.67
2022-08-09T22:08:15.198Z,14.66
2022-08-09T22:11:49.532Z,14.64
2022-08-09T22:13:37.090Z,14.62
2022-08-09T22:16:10.008Z,14.60
2022-08-09T22:18:53.101Z,14.55
2022-08-09T22:21:27.316Z,14.50
2022-08-09T22:24:16.596Z,14.48
2022-08-09T22:26:51.007Z,14.41
2022-08-09T22:29:28.443Z,14.37
2022-08-09T22:32:06.927Z,14.31
2022-08-09T22:34:59.354Z,14.24
2022-08-09T22:37:40.261Z,14.18
2022-08-09T22:40:18.300Z,14.12
2022-08-09T22:42:50.169Z,14.08
2022-08-09T22:48:15.792Z,14.02
2022-08-09T22:48:34.971Z,14.01
2022-08-09T22:51:10.908Z,13.96
2022-08-09T22:54:02.007Z,13.94
2022-08-09T22:56:33.981Z,13.89
2022-08-09T22:59:57.273Z,13.88
2022-08-09T23:01:56.230Z,13.80
2022-08-09T23:04:27.973Z,13.77
2022-08-09T23:08:21.227Z,13.73
2022-08-09T23:10:10.361Z,13.68
2022-08-09T23:12:40.045Z,13.64
2022-08-09T23:15:11.089Z,13.59
2022-08-09T23:17:40.648Z,13.53
2022-08-09T23:20:12.710Z,13.48
2022-08-09T23:22:42.302Z,13.44
2022-08-09T23:25:12.204Z,13.39
2022-08-09T23:28:14.483Z,13.30
2022-08-09T23:30:31.538Z,13.25
2022-08-09T23:33:01.182Z,13.18
2022-08-09T23:35:32.100Z,13.14
2022-08-09T23:38:22.862Z,13.06
2022-08-09T23:40:52.429Z,13.00
2022-08-09T23:43:22.492Z,12.97
2022-08-09T23:45:52.037Z,12.94
2022-08-09T23:48:21.636Z,12.88
2022-08-09T23:50:52.521Z,12.83
2022-08-09T23:53:22.074Z,12.78
2022-08-09T23:55:55.368Z,12.76
2022-08-09T23:58:29.711Z,12.74
